Pebble Beach, CA (93953)

7:36 PM PST on February 09, 2016 (GMT -0800)
Spyglass | | Change Station
CLOSE
Current Station
Personal Weather Station
Location: Del Monte Forest, CA
Elevation: 207 ft
Nearby Weather Stations
Active Advisory: Beach Hazard Statement Active Notice: Record Report

Elev 207 ft 36.59 °N, 121.95 °W | Updated 0 second ago

Partly Cloudy
Partly Cloudy
56.5 °F
Feels Like 56.5 °F
N
1.0
Wind Variable Wind from ENE
Gusts 1.0 mph

Today
High -- | Low -- °F
--% Chance of Precip.
Yesterday
High -- | Low -- °F
Precip. -- in
Pressure 30.22 in
Visibility 10.0 miles
Clouds Clear
Dew Point 44 °F
Humidity 62%
Rainfall 0.00 in
Snow Depth Not available.
7:02 AM 5:41 PM
Waxing Crescent, 3% visible
METAR KMRY 100254Z 14004KT 10SM CLR 16/05 A3018 RMK AO2 SLP233 T01560050 51017
Pressure 30.22 in
Visibility 10.0 miles
Clouds Clear
Dew Point 44 °F
Humidity 62%
Rainfall 0.00 in
Snow Depth Not available.
7:02 AM 5:41 PM
Waxing Crescent, 3% visible
METAR KMRY 100254Z 14004KT 10SM CLR 16/05 A3018 RMK AO2 SLP233 T01560050 51017

10-Day Weather Forecast

Almanac

Astronomy

Feb. 09, 2016 Rise Set
Actual Time
Civil Twilight
Nautical Twilight
Astronomical Twilight
Moon
Length of Visible Light
Length of Day
Tomorrow will be .
, % of the Moon is Illuminated

Today's Extremes

State Highs State Lows

Community

WunderPhotos

Upload Photos

1,891,792 photos uploaded!

WunderBlog® & News

Nearby

Air Quality

  Air Quality AQ Index Pollutant
Not available.

Snow Depth

Station Depth Elevation

Earthquake Activity

City Distance Mag. Time & Date
Minimum magnitude displayed is 2.5.

Coastal Water Temperatures

Place Temperature

Stations

Nearby Weather Stations

Station Location Temp. Windchill Dew Point Humidity Wind Precip. Elev Updated Type
                   

Watches & Warnings

Beach Hazard Statement
Issued: 12:48 PM PST Feb. 9, 2016 – National Weather Service

... Beach hazards statement remains in effect until 8 PM PST this
evening...

* waves... west to northwest swell 7 to 8 feet at 13 to 15
seconds. Offshore winds will allow for larger waves.

* Hazards... increased risk of rip currents and large shore
break.

* Timing... now through 8pm Tuesday.

* Location... coastline from Sonoma County south through Monterey
County.

Precautionary/preparedness actions...

A beach hazard statement for rip currents means that conditions
are present to support a heightened risk of strong rip currents.
Rip currents are typically more frequent and stronger in the
vicinity of jetties... inlets... and piers. Swimmers caught in a
rip current should swim parallel to the coast to escape the rip
current before trying to swim for shore. Swimmers should always
swim near a lifeguard.